createdAt,value
2022-12-31T00:03:45.033Z,9.00
2022-12-31T00:07:46.516Z,9.12
2022-12-31T00:11:47.920Z,9.11
2022-12-31T00:15:49.348Z,9.14
2022-12-31T00:19:52.130Z,9.28
2022-12-31T00:23:53.570Z,9.28
2022-12-31T00:27:54.984Z,9.41
2022-12-31T00:31:56.425Z,9.45
2022-12-31T00:36:06.023Z,9.56
2022-12-31T00:40:09.301Z,9.57
2022-12-31T00:44:11.795Z,9.74
2022-12-31T00:48:13.229Z,9.92
2022-12-31T00:52:16.004Z,10.02
2022-12-31T00:56:19.776Z,10.19
2022-12-31T01:00:21.224Z,10.08
2022-12-31T01:04:22.662Z,10.14
2022-12-31T01:08:25.439Z,10.19
2022-12-31T01:12:26.834Z,10.23
2022-12-31T01:16:31.605Z,10.13
2022-12-31T01:20:36.173Z,10.18
2022-12-31T01:24:39.058Z,10.05
2022-12-31T01:28:40.743Z,10.11
2022-12-31T01:32:42.175Z,10.45
2022-12-31T01:36:43.672Z,10.48
2022-12-31T01:40:46.439Z,10.41
2022-12-31T01:44:51.914Z,10.39
2022-12-31T01:48:56.420Z,10.30
2022-12-31T01:53:00.725Z,10.35
2022-12-31T01:57:04.016Z,10.27
2022-12-31T02:01:08.119Z,10.31
2022-12-31T02:05:17.014Z,10.42
2022-12-31T02:09:18.505Z,10.47
2022-12-31T02:13:21.346Z,10.46
2022-12-31T02:17:32.414Z,10.27
2022-12-31T02:21:50.680Z,10.35
2022-12-31T02:26:08.625Z,10.49
2022-12-31T02:30:15.229Z,10.65
2022-12-31T02:34:21.023Z,10.79
2022-12-31T02:38:24.463Z,10.93
2022-12-31T02:42:25.922Z,10.95
2022-12-31T02:46:37.368Z,10.95
2022-12-31T02:50:44.841Z,10.85
2022-12-31T02:54:55.504Z,10.85
2022-12-31T02:59:03.300Z,10.82
2022-12-31T03:03:07.862Z,10.75
2022-12-31T03:07:13.092Z,10.92
2022-12-31T03:11:14.489Z,11.02
2022-12-31T03:15:18.831Z,11.15
2022-12-31T03:19:21.575Z,11.06
2022-12-31T03:23:26.137Z,10.97
2022-12-31T03:27:27.550Z,10.96
2022-12-31T03:31:28.970Z,10.93
2022-12-31T03:35:34.413Z,10.87
2022-12-31T03:39:35.817Z,10.91
2022-12-31T03:43:37.248Z,10.93
2022-12-31T03:47:38.983Z,11.02
2022-12-31T03:51:41.729Z,10.94
2022-12-31T03:55:43.272Z,11.02
2022-12-31T03:59:44.718Z,10.93
2022-12-31T04:03:46.149Z,11.02
2022-12-31T04:07:48.934Z,11.06
2022-12-31T04:11:50.369Z,11.01
2022-12-31T04:15:51.880Z,11.06
2022-12-31T04:19:53.304Z,11.04
2022-12-31T04:23:56.143Z,11.00
2022-12-31T04:27:57.600Z,11.03
2022-12-31T04:31:59.031Z,11.01
2022-12-31T04:36:00.796Z,11.12
2022-12-31T04:40:06.617Z,11.18
2022-12-31T04:44:08.379Z,11.26
2022-12-31T04:48:09.788Z,11.23
2022-12-31T04:52:11.179Z,11.32
2022-12-31T04:56:14.517Z,11.34
2022-12-31T05:00:16.257Z,11.46
2022-12-31T05:04:17.697Z,11.57
2022-12-31T05:08:19.603Z,11.62
2022-12-31T05:12:22.356Z,11.66
2022-12-31T05:16:23.866Z,11.60
2022-12-31T05:20:25.325Z,11.57
2022-12-31T05:24:26.729Z,11.62
2022-12-31T05:28:29.461Z,11.56
2022-12-31T05:32:30.949Z,11.78
2022-12-31T05:36:32.360Z,11.60
2022-12-31T05:40:33.797Z,11.58
2022-12-31T05:44:36.533Z,11.40
2022-12-31T05:48:37.930Z,11.36
2022-12-31T05:52:39.344Z,11.39
2022-12-31T05:56:40.807Z,11.57
2022-12-31T06:00:43.543Z,11.74
2022-12-31T06:04:44.976Z,11.76
2022-12-31T06:08:49.207Z,12.03
2022-12-31T06:12:50.643Z,12.09
2022-12-31T06:16:53.411Z,12.23
2022-12-31T06:20:57.612Z,12.20
2022-12-31T06:24:59.025Z,12.26
2022-12-31T06:29:00.434Z,12.20
2022-12-31T06:33:03.221Z,12.42
2022-12-31T06:37:04.659Z,12.59
2022-12-31T06:41:09.531Z,12.59
2022-12-31T06:45:11.313Z,12.56
2022-12-31T06:49:14.671Z,12.64
2022-12-31T06:53:16.099Z,12.71
2022-12-31T06:57:18.065Z,12.78
2022-12-31T07:01:35.244Z,12.73
2022-12-31T07:05:45.371Z,13.00
2022-12-31T07:09:55.610Z,13.12
2022-12-31T07:14:07.447Z,13.23
2022-12-31T07:18:20.856Z,13.38
2022-12-31T07:22:24.226Z,13.44
2022-12-31T07:26:43.561Z,13.33
2022-12-31T07:30:52.590Z,13.41
2022-12-31T07:35:03.421Z,13.38
2022-12-31T07:39:10.841Z,13.48
2022-12-31T07:43:18.046Z,13.75
2022-12-31T07:47:21.867Z,13.80
2022-12-31T07:51:23.776Z,13.82
2022-12-31T07:55:26.552Z,14.19
2022-12-31T07:59:41.181Z,14.12
2022-12-31T08:03:52.679Z,14.26
2022-12-31T08:07:58.191Z,14.28
2022-12-31T08:12:02.396Z,14.59
2022-12-31T08:16:04.515Z,14.68
2022-12-31T08:20:07.189Z,14.67
2022-12-31T08:24:20.302Z,14.70
2022-12-31T08:28:45.175Z,14.85
2022-12-31T08:32:51.659Z,14.91
2022-12-31T08:36:59.843Z,14.81
2022-12-31T08:41:12.292Z,14.90
2022-12-31T08:45:24.856Z,14.97
2022-12-31T08:49:28.344Z,14.95
2022-12-31T08:53:30.677Z,15.00
2022-12-31T08:57:38.029Z,14.95
2022-12-31T09:01:56.956Z,15.13
2022-12-31T09:06:06.209Z,15.24
2022-12-31T09:10:17.856Z,15.24
2022-12-31T09:14:33.489Z,15.25
2022-12-31T09:18:41.064Z,15.47
2022-12-31T09:22:42.844Z,15.57
2022-12-31T09:26:52.486Z,15.71
2022-12-31T09:31:01.097Z,15.69
2022-12-31T09:35:12.519Z,15.62
2022-12-31T09:39:22.476Z,15.72
2022-12-31T09:44:00.885Z,15.67
2022-12-31T09:48:42.134Z,15.55
2022-12-31T09:53:02.454Z,15.63
2022-12-31T09:57:19.403Z,15.58
2022-12-31T10:01:31.220Z,15.57
2022-12-31T10:05:48.789Z,15.75
2022-12-31T10:10:00.728Z,15.83
2022-12-31T10:14:28.327Z,15.83
2022-12-31T10:18:44.298Z,15.90
2022-12-31T10:23:20.657Z,16.00
2022-12-31T10:27:48.726Z,16.04
2022-12-31T10:32:07.410Z,16.14
2022-12-31T10:36:17.802Z,16.07
2022-12-31T10:40:28.907Z,16.19
2022-12-31T10:45:04.227Z,16.07
2022-12-31T10:49:30.159Z,15.97
2022-12-31T10:53:52.000Z,16.03
2022-12-31T10:58:28.926Z,15.96
2022-12-31T11:02:52.841Z,16.03
2022-12-31T11:07:22.595Z,16.06
2022-12-31T11:11:38.182Z,16.14
2022-12-31T11:16:09.762Z,16.06
2022-12-31T11:20:30.973Z,16.09
2022-12-31T11:24:44.263Z,16.12
2022-12-31T11:29:08.212Z,16.12
2022-12-31T11:33:24.347Z,16.13
2022-12-31T11:37:36.629Z,16.33
2022-12-31T11:41:46.223Z,16.35
2022-12-31T11:46:08.593Z,16.34
2022-12-31T11:50:28.712Z,16.38
2022-12-31T11:54:45.706Z,16.48
2022-12-31T11:58:49.377Z,16.45
2022-12-31T12:02:53.738Z,16.53
2022-12-31T12:06:55.661Z,16.47
2022-12-31T12:11:04.990Z,16.62
2022-12-31T12:15:10.146Z,16.69
2022-12-31T12:19:17.963Z,16.77
2022-12-31T12:23:24.500Z,16.84
2022-12-31T12:27:30.601Z,16.90
2022-12-31T12:31:32.127Z,17.01
2022-12-31T12:35:35.506Z,17.06
2022-12-31T12:39:37.201Z,17.16
2022-12-31T12:43:40.000Z,17.33
2022-12-31T12:47:42.953Z,17.25
2022-12-31T12:52:02.801Z,17.12
2022-12-31T12:56:12.880Z,17.06
2022-12-31T13:00:21.689Z,16.98
2022-12-31T13:04:47.491Z,17.01
2022-12-31T13:09:04.128Z,16.86
2022-12-31T13:13:24.900Z,16.77
2022-12-31T13:17:39.843Z,16.84
2022-12-31T13:21:48.865Z,16.59
2022-12-31T13:25:59.917Z,16.42
2022-12-31T13:30:04.105Z,16.51
2022-12-31T13:34:13.348Z,16.32
2022-12-31T13:38:18.899Z,16.29
2022-12-31T13:42:25.453Z,16.41
2022-12-31T13:46:40.668Z,16.36
2022-12-31T13:50:51.186Z,16.36
2022-12-31T13:54:56.582Z,16.19
2022-12-31T13:59:00.155Z,16.04
2022-12-31T14:03:11.364Z,16.12
2022-12-31T14:07:16.785Z,16.16
2022-12-31T14:11:27.002Z,16.13
2022-12-31T14:15:32.751Z,16.12
2022-12-31T14:19:47.991Z,16.13
2022-12-31T14:24:01.829Z,15.89
2022-12-31T14:28:06.420Z,15.78
2022-12-31T14:32:24.204Z,15.90
2022-12-31T14:36:37.043Z,15.81
2022-12-31T14:40:52.175Z,15.81
2022-12-31T14:45:06.497Z,15.81
2022-12-31T14:49:23.761Z,15.79
2022-12-31T14:53:26.203Z,15.68
2022-12-31T14:57:54.340Z,15.44
2022-12-31T15:01:57.386Z,15.48
2022-12-31T15:06:09.739Z,15.70
2022-12-31T15:10:18.708Z,15.46
2022-12-31T15:15:00.972Z,15.47
2022-12-31T15:19:44.472Z,15.54
2022-12-31T15:23:46.424Z,15.50
2022-12-31T15:27:48.762Z,15.57
2022-12-31T15:31:52.595Z,15.56
2022-12-31T15:35:56.898Z,15.31
2022-12-31T15:40:16.509Z,15.19
2022-12-31T15:44:24.448Z,15.14
2022-12-31T15:48:36.137Z,15.07
2022-12-31T15:52:43.368Z,15.13
2022-12-31T15:56:45.751Z,14.97
2022-12-31T16:01:00.446Z,14.94
2022-12-31T16:05:03.451Z,15.04
2022-12-31T16:09:08.461Z,14.89
2022-12-31T16:13:20.040Z,14.75
2022-12-31T16:17:27.026Z,15.00
2022-12-31T16:21:32.822Z,15.07
2022-12-31T16:25:35.622Z,14.91
2022-12-31T16:29:41.575Z,15.02
2022-12-31T16:33:44.040Z,15.00
2022-12-31T16:37:46.948Z,15.13
2022-12-31T16:41:48.354Z,14.98
2022-12-31T16:45:49.933Z,15.03
2022-12-31T16:49:59.333Z,14.86
2022-12-31T16:54:03.140Z,14.92
2022-12-31T16:58:15.087Z,14.96
2022-12-31T17:02:21.908Z,14.89
2022-12-31T17:06:23.595Z,14.72
2022-12-31T17:10:32.933Z,14.65
2022-12-31T17:14:48.011Z,14.72
2022-12-31T17:18:49.667Z,14.64
2022-12-31T17:22:54.424Z,14.73
2022-12-31T17:27:03.555Z,14.90
2022-12-31T17:31:27.695Z,14.97
2022-12-31T17:35:31.510Z,14.78
2022-12-31T17:39:43.183Z,14.97
2022-12-31T17:43:50.461Z,15.01
2022-12-31T17:47:52.221Z,15.25
2022-12-31T17:51:53.633Z,14.90
2022-12-31T17:56:00.107Z,14.88
2022-12-31T18:00:05.480Z,14.94
2022-12-31T18:04:10.859Z,14.94
2022-12-31T18:08:12.394Z,14.96
2022-12-31T18:12:14.799Z,14.82
2022-12-31T18:16:17.668Z,14.71
2022-12-31T18:20:19.277Z,14.54
2022-12-31T18:24:25.901Z,14.47
2022-12-31T18:28:27.659Z,14.37
2022-12-31T18:32:31.255Z,14.07
2022-12-31T18:36:32.734Z,14.09
2022-12-31T18:40:34.179Z,13.86
2022-12-31T18:44:35.607Z,13.92
2022-12-31T18:48:38.372Z,13.74
2022-12-31T18:52:39.862Z,13.89
2022-12-31T18:56:47.045Z,13.87
2022-12-31T19:00:50.757Z,13.92
2022-12-31T19:04:53.530Z,14.16
2022-12-31T19:08:55.444Z,14.17
2022-12-31T19:12:56.883Z,14.25
2022-12-31T19:16:58.293Z,14.27
2022-12-31T19:21:01.446Z,14.39
2022-12-31T19:25:03.197Z,14.24
2022-12-31T19:29:04.613Z,14.28
2022-12-31T19:33:06.037Z,14.31
2022-12-31T19:37:11.864Z,14.15
2022-12-31T19:41:15.415Z,14.15
2022-12-31T19:45:19.537Z,14.18
2022-12-31T19:49:21.082Z,14.31
2022-12-31T19:53:26.683Z,14.35
2022-12-31T19:57:28.149Z,14.19
2022-12-31T20:01:29.722Z,14.36
2022-12-31T20:05:31.441Z,14.13
2022-12-31T20:09:34.227Z,14.21
2022-12-31T20:13:36.089Z,14.45
2022-12-31T20:17:37.608Z,14.72
2022-12-31T20:21:39.032Z,14.88
2022-12-31T20:25:41.827Z,15.03
2022-12-31T20:29:43.246Z,15.09
2022-12-31T20:33:44.820Z,15.19
2022-12-31T20:37:46.384Z,15.31
2022-12-31T20:41:49.216Z,15.35
2022-12-31T20:45:50.638Z,15.36
2022-12-31T20:50:10.897Z,15.46
2022-12-31T20:54:12.883Z,15.09
2022-12-31T20:58:15.668Z,15.35
2022-12-31T21:02:21.638Z,15.29
2022-12-31T21:06:23.436Z,15.34
2022-12-31T21:10:24.841Z,15.34
2022-12-31T21:14:27.581Z,15.39
2022-12-31T21:18:29.073Z,15.47
2022-12-31T21:22:30.597Z,15.51
2022-12-31T21:26:32.180Z,15.62
2022-12-31T21:30:34.973Z,15.65
2022-12-31T21:34:36.389Z,15.62
2022-12-31T21:38:38.087Z,15.70
2022-12-31T21:42:39.535Z,15.87
2022-12-31T21:47:00.894Z,15.80
2022-12-31T21:51:09.193Z,15.90
2022-12-31T21:55:11.444Z,15.79
2022-12-31T21:59:12.854Z,15.90
2022-12-31T22:03:15.752Z,16.15
2022-12-31T22:07:17.330Z,16.20
2022-12-31T22:11:21.032Z,16.12
2022-12-31T22:15:22.433Z,16.19
2022-12-31T22:19:25.160Z,16.14
2022-12-31T22:23:26.679Z,16.14
2022-12-31T22:27:29.915Z,16.16
2022-12-31T22:31:31.629Z,16.20
2022-12-31T22:35:34.427Z,16.09
2022-12-31T22:39:43.968Z,16.03
2022-12-31T22:43:47.728Z,15.96
2022-12-31T22:47:49.162Z,16.07
2022-12-31T22:51:56.255Z,15.91
2022-12-31T22:56:00.423Z,15.91
2022-12-31T23:00:01.886Z,15.68
2022-12-31T23:04:03.977Z,15.78
2022-12-31T23:08:17.012Z,15.75
2022-12-31T23:12:23.627Z,15.73
2022-12-31T23:16:26.972Z,15.58
2022-12-31T23:20:28.400Z,15.60
2022-12-31T23:24:31.153Z,15.79
2022-12-31T23:28:32.588Z,15.71
2022-12-31T23:32:33.990Z,15.58
2022-12-31T23:36:35.418Z,15.67
2022-12-31T23:40:38.503Z,15.59
2022-12-31T23:44:39.901Z,15.54
2022-12-31T23:48:41.325Z,15.55
2022-12-31T23:52:42.723Z,15.28
2022-12-31T23:56:45.503Z,15.25
